Time;durP1;ratioP1;P1;durP2;ratioP2;P2;SDS_P1;SDS_P2;PMS_P1;PMS_P2;Temp;Humidity;BMP_temperature;BMP_pressure;BME280_temperature;BME280_humidity;BME280_pressure;Samples;Min_cycle;Max_cycle;Signal;HPM_P1;HPM_P2
2021/04/02 00:00:11;;;;;;;9.85;3.38;;;;;;;;;;5076464;28;20375;-70
2021/04/02 00:02:36;;;;;;;8.95;3.40;;;;;;;;;;5077214;28;20962;-71
2021/04/02 00:05:03;;;;;;;8.05;3.17;;;;;;;;;;5079328;28;20489;-71
2021/04/02 00:07:29;;;;;;;7.50;2.95;;;;;;;;;;5077601;28;20389;-70
2021/04/02 00:09:54;;;;;;;7.63;3.20;;;;;;;;;;5076559;28;20466;-70
2021/04/02 00:12:20;;;;;;;5.18;2.60;;;;;;;;;;5076287;28;20817;-71
2021/04/02 00:14:46;;;;;;;7.07;2.50;;;;;;;;;;5077361;28;20827;-72
2021/04/02 00:17:12;;;;;;;5.77;2.40;;;;;;;;;;5076885;28;20529;-70
2021/04/02 00:19:38;;;;;;;5.20;2.22;;;;;;;;;;5078694;28;21087;-71
2021/04/02 00:22:04;;;;;;;4.35;2.20;;;;;;;;;;5057006;28;20412;-70
2021/04/02 00:24:30;;;;;;;4.80;2.10;;;;;;;;;;5079194;28;20398;-70
2021/04/02 00:26:56;;;;;;;4.32;2.13;;;;;;;;;;5080622;28;20394;-70
2021/04/02 00:29:22;;;;;;;4.55;2.20;;;;;;;;;;5077171;28;20709;-70
2021/04/02 00:31:48;;;;;;;5.30;2.38;;;;;;;;;;5076188;28;20391;-70
2021/04/02 00:34:14;;;;;;;6.03;2.47;;;;;;;;;;5078038;28;20374;-71
2021/04/02 00:36:40;;;;;;;9.65;2.83;;;;;;;;;;5077316;28;20398;-70
2021/04/02 00:39:06;;;;;;;6.40;2.47;;;;;;;;;;5063850;28;20432;-71
2021/04/02 00:41:32;;;;;;;6.35;2.58;;;;;;;;;;5081241;28;20919;-70
2021/04/02 00:43:58;;;;;;;5.30;2.58;;;;;;;;;;5064679;28;20495;-71
2021/04/02 00:46:24;;;;;;;6.78;2.33;;;;;;;;;;5061170;28;20419;-71
2021/04/02 00:48:50;;;;;;;7.35;2.97;;;;;;;;;;5080498;28;20380;-71
2021/04/02 00:51:24;;;;;;;8.43;2.75;;;;;;;;;;5084413;28;20441;-71
2021/04/02 00:53:50;;;;;;;6.83;2.53;;;;;;;;;;5079733;28;20394;-70
2021/04/02 00:56:17;;;;;;;5.93;2.60;;;;;;;;;;5083948;28;20395;-70
2021/04/02 00:58:43;;;;;;;6.80;2.70;;;;;;;;;;5080865;28;20861;-70
2021/04/02 01:01:10;;;;;;;7.93;3.17;;;;;;;;;;5080030;28;20872;-70
2021/04/02 01:03:36;;;;;;;7.55;2.90;;;;;;;;;;5081632;28;20415;-70
2021/04/02 01:06:08;;;;;;;5.90;2.40;;;;;;;;;;5078116;28;20427;-71
2021/04/02 01:08:35;;;;;;;5.47;2.75;;;;;;;;;;5079592;28;20772;-70
2021/04/02 01:11:02;;;;;;;6.65;2.97;;;;;;;;;;5083492;28;20421;-71
2021/04/02 01:13:33;;;;;;;7.53;2.65;;;;;;;;;;5080892;28;20586;-71
2021/04/02 01:16:13;;;;;;;6.22;2.55;;;;;;;;;;5078328;28;20398;-72
2021/04/02 01:18:44;;;;;;;6.32;2.65;;;;;;;;;;5069208;28;20401;-70
2021/04/02 01:21:10;;;;;;;5.85;2.53;;;;;;;;;;5059393;28;20496;-70
2021/04/02 01:23:54;;;;;;;7.63;2.55;;;;;;;;;;5079810;28;20427;-70
2021/04/02 01:26:27;;;;;;;8.68;2.97;;;;;;;;;;5079014;28;20414;-71
2021/04/02 01:28:55;;;;;;;8.32;2.92;;;;;;;;;;5077820;28;20401;-70
2021/04/02 01:31:22;;;;;;;8.90;3.17;;;;;;;;;;5082885;28;20390;-71
2021/04/02 01:33:51;;;;;;;8.77;3.05;;;;;;;;;;5079431;28;20477;-70
2021/04/02 01:36:17;;;;;;;6.75;2.90;;;;;;;;;;5079892;28;20396;-70
2021/04/02 01:38:44;;;;;;;6.63;3.05;;;;;;;;;;5077325;28;20405;-71
2021/04/02 01:41:11;;;;;;;9.63;2.90;;;;;;;;;;5081065;28;20990;-71
2021/04/02 01:43:42;;;;;;;6.50;3.17;;;;;;;;;;5079714;28;20409;-70
2021/04/02 01:46:09;;;;;;;8.13;3.17;;;;;;;;;;5080498;28;20418;-70
2021/04/02 01:48:38;;;;;;;6.50;2.97;;;;;;;;;;5077205;28;20925;-70
2021/04/02 01:51:04;;;;;;;8.20;3.50;;;;;;;;;;5076967;28;20401;-70
2021/04/02 01:53:32;;;;;;;8.20;2.90;;;;;;;;;;5059655;28;20728;-70
2021/04/02 01:55:58;;;;;;;7.30;3.10;;;;;;;;;;5080042;28;20873;-70
2021/04/02 01:58:25;;;;;;;7.45;3.15;;;;;;;;;;5077469;28;20756;-70
2021/04/02 02:00:53;;;;;;;7.55;3.33;;;;;;;;;;5077540;28;20398;-70
2021/04/02 02:03:19;;;;;;;8.90;3.65;;;;;;;;;;5077865;28;20506;-70
2021/04/02 02:05:47;;;;;;;9.40;3.95;;;;;;;;;;5078541;28;20463;-70
2021/04/02 02:08:13;;;;;;;12.23;3.90;;;;;;;;;;5077088;28;20395;-70
2021/04/02 02:10:39;;;;;;;9.60;3.80;;;;;;;;;;5076743;28;20402;-70
2021/04/02 02:13:07;;;;;;;8.67;3.50;;;;;;;;;;5079261;28;20838;-70
2021/04/02 02:15:36;;;;;;;10.90;4.13;;;;;;;;;;5080165;28;20421;-70
2021/04/02 02:18:05;;;;;;;10.38;4.10;;;;;;;;;;5078901;28;20869;-70
2021/04/02 02:20:32;;;;;;;9.05;4.10;;;;;;;;;;5066241;28;20538;-70
2021/04/02 02:22:58;;;;;;;9.52;4.10;;;;;;;;;;5058891;28;20419;-70
2021/04/02 02:25:28;;;;;;;9.57;3.70;;;;;;;;;;5078380;28;20689;-71
2021/04/02 02:27:54;;;;;;;7.07;3.58;;;;;;;;;;5077275;28;20887;-70
2021/04/02 02:30:22;;;;;;;8.75;3.65;;;;;;;;;;5081801;28;20905;-70
2021/04/02 02:32:50;;;;;;;8.30;3.90;;;;;;;;;;5079527;28;20363;-70
2021/04/02 02:35:16;;;;;;;9.60;4.05;;;;;;;;;;5077474;28;20386;-71
2021/04/02 02:37:43;;;;;;;10.75;3.70;;;;;;;;;;5063122;28;20743;-70
2021/04/02 02:40:29;;;;;;;8.32;3.67;;;;;;;;;;5078243;28;20769;-70
2021/04/02 02:42:57;;;;;;;9.07;3.55;;;;;;;;;;5077583;28;20563;-70
2021/04/02 02:45:24;;;;;;;8.43;3.33;;;;;;;;;;5079313;28;20415;-71
2021/04/02 02:47:50;;;;;;;8.75;3.25;;;;;;;;;;5082251;28;20380;-71
2021/04/02 02:50:17;;;;;;;8.23;3.30;;;;;;;;;;5079406;28;20879;-70
2021/04/02 02:52:43;;;;;;;10.68;3.35;;;;;;;;;;5082204;28;20424;-71
2021/04/02 02:55:10;;;;;;;8.15;3.22;;;;;;;;;;5087593;28;20455;-70
2021/04/02 02:57:37;;;;;;;8.63;3.33;;;;;;;;;;5070283;28;20429;-70
2021/04/02 03:00:07;;;;;;;7.68;3.30;;;;;;;;;;5085281;28;20987;-70
2021/04/02 03:02:33;;;;;;;8.27;3.33;;;;;;;;;;5087255;28;20428;-70
2021/04/02 03:05:00;;;;;;;7.37;3.07;;;;;;;;;;5082644;28;20390;-70
2021/04/02 03:07:27;;;;;;;7.75;3.15;;;;;;;;;;5087543;28;20402;-70
2021/04/02 03:09:54;;;;;;;9.30;3.13;;;;;;;;;;5086342;28;20439;-70
2021/04/02 03:12:20;;;;;;;10.48;3.53;;;;;;;;;;5086575;28;20424;-70
2021/04/02 03:14:48;;;;;;;8.05;3.08;;;;;;;;;;5087377;28;20398;-71
2021/04/02 03:17:14;;;;;;;8.57;3.17;;;;;;;;;;5067725;28;20406;-70
2021/04/02 03:19:42;;;;;;;11.32;3.00;;;;;;;;;;5052049;28;20399;-70
2021/04/02 03:22:08;;;;;;;7.80;2.83;;;;;;;;;;5081130;28;20474;-70
2021/04/02 03:24:36;;;;;;;7.72;3.05;;;;;;;;;;5074743;28;20398;-70
2021/04/02 03:27:03;;;;;;;6.18;2.90;;;;;;;;;;5086434;28;20477;-70
2021/04/02 03:29:29;;;;;;;6.07;3.03;;;;;;;;;;5082660;28;20389;-71
2021/04/02 03:31:58;;;;;;;8.93;2.97;;;;;;;;;;5087683;28;20378;-70
2021/04/02 03:34:25;;;;;;;8.90;3.50;;;;;;;;;;5086918;28;20916;-70
2021/04/02 03:36:52;;;;;;;8.63;3.07;;;;;;;;;;5083862;28;20965;-71
2021/04/02 03:39:26;;;;;;;8.27;3.00;;;;;;;;;;5086727;28;20389;-70
2021/04/02 03:41:54;;;;;;;8.73;3.22;;;;;;;;;;5086241;28;20409;-70
2021/04/02 03:44:21;;;;;;;8.55;3.35;;;;;;;;;;5066766;28;20941;-70
2021/04/02 03:46:48;;;;;;;11.88;3.53;;;;;;;;;;5077611;28;20386;-70
2021/04/02 03:49:15;;;;;;;8.63;3.38;;;;;;;;;;5073043;28;20403;-70
2021/04/02 03:51:42;;;;;;;9.23;3.60;;;;;;;;;;5080917;28;20473;-70
2021/04/02 03:54:09;;;;;;;7.60;3.33;;;;;;;;;;5082769;28;20428;-70
2021/04/02 03:56:36;;;;;;;10.20;3.67;;;;;;;;;;5083226;28;20397;-71
2021/04/02 03:59:03;;;;;;;13.18;3.75;;;;;;;;;;5087667;28;20489;-70
2021/04/02 04:01:30;;;;;;;10.53;4.03;;;;;;;;;;5086968;28;20468;-70
2021/04/02 04:03:57;;;;;;;10.00;3.65;;;;;;;;;;5069311;28;20427;-70
2021/04/02 04:06:24;;;;;;;10.48;3.70;;;;;;;;;;5087949;28;20479;-70
2021/04/02 04:08:54;;;;;;;11.70;3.83;;;;;;;;;;5079754;28;20427;-69
2021/04/02 04:11:23;;;;;;;10.32;3.88;;;;;;;;;;5082636;28;20471;-70
2021/04/02 04:13:49;;;;;;;9.73;3.58;;;;;;;;;;5090554;28;20389;-69
2021/04/02 04:16:17;;;;;;;9.73;3.42;;;;;;;;;;5090184;28;20463;-70
2021/04/02 04:18:45;;;;;;;9.73;3.33;;;;;;;;;;5091846;28;20374;-70
2021/04/02 04:21:11;;;;;;;11.02;3.58;;;;;;;;;;5079758;28;20453;-70
2021/04/02 04:23:39;;;;;;;14.18;3.63;;;;;;;;;;5080102;28;20429;-71
2021/04/02 04:26:06;;;;;;;11.00;3.72;;;;;;;;;;5061650;28;21132;-70
2021/04/02 04:28:32;;;;;;;10.93;3.38;;;;;;;;;;5071285;28;20376;-70
2021/04/02 04:31:01;;;;;;;10.40;3.20;;;;;;;;;;5084471;28;20398;-70
2021/04/02 04:33:28;;;;;;;11.73;3.95;;;;;;;;;;5086604;28;20420;-70
2021/04/02 04:35:55;;;;;;;9.57;3.20;;;;;;;;;;5089971;28;21038;-70
2021/04/02 04:38:21;;;;;;;10.05;3.17;;;;;;;;;;5089519;28;20393;-71
2021/04/02 04:40:48;;;;;;;10.40;3.40;;;;;;;;;;5084439;28;20403;-70
2021/04/02 04:43:16;;;;;;;9.27;3.08;;;;;;;;;;5064137;28;20438;-70
2021/04/02 04:45:42;;;;;;;9.80;3.20;;;;;;;;;;5089313;28;20402;-70
2021/04/02 04:48:09;;;;;;;10.25;3.67;;;;;;;;;;5089795;28;20754;-70
2021/04/02 04:50:35;;;;;;;10.35;3.55;;;;;;;;;;5083731;28;20408;-70
2021/04/02 04:53:03;;;;;;;11.17;3.27;;;;;;;;;;5068332;28;20394;-70
2021/04/02 04:55:31;;;;;;;13.05;3.05;;;;;;;;;;5083696;28;20402;-70
2021/04/02 04:57:58;;;;;;;11.20;3.30;;;;;;;;;;5089684;28;20402;-70
2021/04/02 05:00:27;;;;;;;10.45;3.10;;;;;;;;;;5089117;28;20394;-69
2021/04/02 05:02:54;;;;;;;9.37;3.20;;;;;;;;;;5080966;28;20424;-70
2021/04/02 05:05:23;;;;;;;8.82;3.35;;;;;;;;;;5085677;28;20401;-70
2021/04/02 05:07:52;;;;;;;9.00;3.13;;;;;;;;;;5085513;28;20436;-70
2021/04/02 05:10:19;;;;;;;12.17;3.10;;;;;;;;;;5081431;28;20413;-70
2021/04/02 05:12:46;;;;;;;11.23;3.30;;;;;;;;;;5088988;28;20852;-70
2021/04/02 05:15:12;;;;;;;9.10;2.97;;;;;;;;;;5087840;28;21019;-70
2021/04/02 05:17:39;;;;;;;10.63;3.30;;;;;;;;;;5084435;28;20390;-70
2021/04/02 05:20:05;;;;;;;13.95;3.58;;;;;;;;;;5080411;28;21099;-70
2021/04/02 05:22:31;;;;;;;9.73;3.53;;;;;;;;;;5088602;28;20516;-72
2021/04/02 05:24:57;;;;;;;11.02;3.22;;;;;;;;;;5056558;28;20473;-70
2021/04/02 05:27:24;;;;;;;12.43;3.55;;;;;;;;;;5089119;28;20390;-70
2021/04/02 05:29:50;;;;;;;11.02;3.30;;;;;;;;;;5087680;28;20412;-70
2021/04/02 05:32:16;;;;;;;9.82;3.08;;;;;;;;;;5089294;28;20712;-70
2021/04/02 05:34:42;;;;;;;11.35;3.28;;;;;;;;;;5085895;28;20402;-70
2021/04/02 05:37:08;;;;;;;9.68;3.05;;;;;;;;;;5078423;28;20412;-70
2021/04/02 05:39:34;;;;;;;10.93;3.22;;;;;;;;;;5091938;28;20386;-71
2021/04/02 05:42:04;;;;;;;11.65;3.45;;;;;;;;;;5089303;28;20402;-71
2021/04/02 05:44:32;;;;;;;10.55;3.35;;;;;;;;;;5056443;28;20777;-70
2021/04/02 05:47:05;;;;;;;7.72;2.92;;;;;;;;;;5079457;28;20430;-70
2021/04/02 05:49:32;;;;;;;9.82;3.10;;;;;;;;;;5084626;28;20504;-70
2021/04/02 05:51:58;;;;;;;11.03;3.17;;;;;;;;;;5088645;28;20516;-70
2021/04/02 05:54:28;;;;;;;10.83;3.10;;;;;;;;;;5079785;28;20480;-70
2021/04/02 05:56:54;;;;;;;10.07;3.33;;;;;;;;;;5083878;28;20411;-70
2021/04/02 05:59:21;;;;;;;12.63;3.28;;;;;;;;;;5084731;28;20382;-70
2021/04/02 06:01:47;;;;;;;11.65;3.72;;;;;;;;;;5082586;28;20391;-70
2021/04/02 06:04:14;;;;;;;7.75;2.90;;;;;;;;;;5086555;28;20383;-70
2021/04/02 06:06:40;;;;;;;8.73;3.05;;;;;;;;;;5068511;28;21027;-70
2021/04/02 06:09:07;;;;;;;12.82;3.55;;;;;;;;;;5088192;28;20942;-70
2021/04/02 06:11:33;;;;;;;11.75;3.35;;;;;;;;;;5077815;28;20408;-70
2021/04/02 06:13:59;;;;;;;9.75;2.92;;;;;;;;;;5086844;28;20398;-70
2021/04/02 06:16:25;;;;;;;10.48;3.30;;;;;;;;;;5074784;28;20856;-71
2021/04/02 06:18:55;;;;;;;10.98;3.40;;;;;;;;;;5065478;28;20410;-70
2021/04/02 06:21:24;;;;;;;8.43;2.65;;;;;;;;;;5075532;28;20706;-70
2021/04/02 06:23:50;;;;;;;10.40;3.08;;;;;;;;;;5086499;28;20422;-70
2021/04/02 06:26:16;;;;;;;8.52;2.85;;;;;;;;;;5088572;28;20394;-70
2021/04/02 06:28:43;;;;;;;11.88;3.65;;;;;;;;;;5086291;28;20489;-70
2021/04/02 06:31:19;;;;;;;10.40;3.30;;;;;;;;;;5081786;28;20717;-70
2021/04/02 06:33:46;;;;;;;11.88;3.60;;;;;;;;;;5085637;28;20875;-70
2021/04/02 06:36:13;;;;;;;11.50;3.20;;;;;;;;;;5078830;28;20486;-70
2021/04/02 06:38:46;;;;;;;11.73;3.70;;;;;;;;;;5079626;28;20395;-70
2021/04/02 06:41:12;;;;;;;14.37;3.47;;;;;;;;;;5077715;28;20391;-71
2021/04/02 06:43:44;;;;;;;10.18;3.30;;;;;;;;;;5080853;28;20432;-70
2021/04/02 06:46:11;;;;;;;9.57;3.00;;;;;;;;;;5078835;28;20391;-70
2021/04/02 06:48:37;;;;;;;8.60;3.10;;;;;;;;;;5078757;28;20394;-70
2021/04/02 06:51:04;;;;;;;10.63;3.53;;;;;;;;;;5074588;28;20541;-69
2021/04/02 06:53:32;;;;;;;11.63;3.20;;;;;;;;;;5078849;28;20798;-70
2021/04/02 06:55:59;;;;;;;10.55;3.50;;;;;;;;;;5078357;28;20396;-71
2021/04/02 06:58:27;;;;;;;15.57;3.83;;;;;;;;;;5059876;28;20390;-70
2021/04/02 07:00:53;;;;;;;12.10;3.35;;;;;;;;;;5080301;28;20425;-70
2021/04/02 07:03:20;;;;;;;9.55;3.40;;;;;;;;;;5081917;28;20482;-69
2021/04/02 07:05:46;;;;;;;17.55;3.85;;;;;;;;;;5078039;28;20449;-69
2021/04/02 07:08:16;;;;;;;15.63;4.03;;;;;;;;;;5076070;28;20713;-69
2021/04/02 07:10:46;;;;;;;12.07;3.47;;;;;;;;;;5082030;28;20400;-71
2021/04/02 07:13:15;;;;;;;13.90;3.92;;;;;;;;;;5073715;28;20407;-70
2021/04/02 07:15:41;;;;;;;15.27;3.58;;;;;;;;;;5065289;28;20608;-69
2021/04/02 07:18:12;;;;;;;14.90;3.83;;;;;;;;;;5086455;28;20381;-69
2021/04/02 07:20:38;;;;;;;14.02;4.28;;;;;;;;;;5085124;28;20389;-69
2021/04/02 07:23:04;;;;;;;11.80;4.32;;;;;;;;;;5084738;28;20538;-73
2021/04/02 07:25:30;;;;;;;16.10;3.83;;;;;;;;;;5080050;28;20386;-70
2021/04/02 07:27:57;;;;;;;15.20;4.10;;;;;;;;;;5059403;28;21444;-70
2021/04/02 07:30:24;;;;;;;12.25;3.92;;;;;;;;;;5051349;28;20804;-69
2021/04/02 07:32:51;;;;;;;13.90;3.42;;;;;;;;;;5072416;28;20395;-69
2021/04/02 07:35:18;;;;;;;12.93;3.53;;;;;;;;;;5082000;28;20394;-69
2021/04/02 07:37:48;;;;;;;9.70;3.35;;;;;;;;;;5085136;28;20429;-70
2021/04/02 07:40:14;;;;;;;12.87;3.70;;;;;;;;;;5075879;28;20464;-68
2021/04/02 07:42:40;;;;;;;10.85;3.05;;;;;;;;;;5077970;28;20512;-69
2021/04/02 07:45:07;;;;;;;12.85;3.45;;;;;;;;;;5089513;28;20485;-70
2021/04/02 07:47:33;;;;;;;10.55;3.00;;;;;;;;;;5085973;28;20409;-70
2021/04/02 07:50:02;;;;;;;9.37;3.10;;;;;;;;;;5082963;28;20410;-71
2021/04/02 07:52:32;;;;;;;11.30;3.30;;;;;;;;;;5081914;28;20493;-70
2021/04/02 07:55:07;;;;;;;12.52;3.40;;;;;;;;;;5084829;28;20394;-69
2021/04/02 07:57:48;;;;;;;11.30;3.58;;;;;;;;;;5078184;28;20871;-69
2021/04/02 08:00:14;;;;;;;14.32;4.10;;;;;;;;;;5079847;28;20383;-70
2021/04/02 08:02:44;;;;;;;10.23;3.22;;;;;;;;;;5081191;28;20469;-70
2021/04/02 08:05:14;;;;;;;13.55;4.40;;;;;;;;;;5082072;28;20384;-69
2021/04/02 08:07:42;;;;;;;10.00;3.60;;;;;;;;;;5082904;28;20488;-70
2021/04/02 08:10:10;;;;;;;13.00;4.13;;;;;;;;;;5083234;28;20396;-71
2021/04/02 08:12:36;;;;;;;12.55;3.83;;;;;;;;;;5081547;28;20492;-69
2021/04/02 08:15:16;;;;;;;12.25;4.30;;;;;;;;;;5085664;28;20485;-71
2021/04/02 08:17:44;;;;;;;13.75;4.43;;;;;;;;;;5066654;28;20429;-70
2021/04/02 08:20:13;;;;;;;14.35;4.80;;;;;;;;;;5077077;28;20400;-70
2021/04/02 08:22:39;;;;;;;12.90;4.40;;;;;;;;;;5088608;28;20449;-70
2021/04/02 08:25:07;;;;;;;13.17;4.00;;;;;;;;;;5089721;28;20444;-69
2021/04/02 08:27:33;;;;;;;13.27;4.28;;;;;;;;;;5085355;28;20454;-70
2021/04/02 08:30:04;;;;;;;12.73;3.80;;;;;;;;;;5084416;28;21102;-70
2021/04/02 08:32:34;;;;;;;12.25;3.42;;;;;;;;;;5087636;28;20491;-69
2021/04/02 08:35:00;;;;;;;9.57;3.53;;;;;;;;;;5068757;28;20391;-70
2021/04/02 08:37:28;;;;;;;11.70;3.38;;;;;;;;;;5087092;28;20451;-71
2021/04/02 08:39:54;;;;;;;11.45;3.10;;;;;;;;;;5085160;28;20849;-69
2021/04/02 08:42:21;;;;;;;11.90;3.28;;;;;;;;;;5066661;28;20495;-70
2021/04/02 08:44:47;;;;;;;11.82;3.10;;;;;;;;;;5083431;28;20844;-69
2021/04/02 08:47:18;;;;;;;12.10;3.10;;;;;;;;;;5088608;28;20433;-69
2021/04/02 08:49:49;;;;;;;19.50;4.27;;;;;;;;;;5086931;28;20660;-69
2021/04/02 08:52:16;;;;;;;11.10;3.53;;;;;;;;;;5085831;28;20471;-69
2021/04/02 08:54:43;;;;;;;15.38;3.47;;;;;;;;;;5083330;28;20405;-69
2021/04/02 08:57:16;;;;;;;13.50;3.35;;;;;;;;;;5083375;28;20401;-69
2021/04/02 08:59:46;;;;;;;14.52;4.00;;;;;;;;;;5076926;28;20914;-69
2021/04/02 09:02:13;;;;;;;17.40;3.45;;;;;;;;;;5085667;28;20413;-69
2021/04/02 09:04:39;;;;;;;17.20;4.22;;;;;;;;;;5078363;28;20382;-69
2021/04/02 09:07:05;;;;;;;15.18;3.85;;;;;;;;;;5090922;28;20370;-69
2021/04/02 09:09:32;;;;;;;13.07;3.35;;;;;;;;;;5089822;28;20374;-70
2021/04/02 09:12:05;;;;;;;13.93;3.58;;;;;;;;;;5090413;28;20777;-69
2021/04/02 09:14:31;;;;;;;17.08;4.15;;;;;;;;;;5090575;28;20925;-68
2021/04/02 09:16:57;;;;;;;11.90;3.72;;;;;;;;;;5090352;28;20851;-71
2021/04/02 09:19:24;;;;;;;11.73;3.45;;;;;;;;;;5090698;28;20370;-71
2021/04/02 09:21:51;;;;;;;11.32;3.60;;;;;;;;;;5090300;28;20378;-72
2021/04/02 09:24:17;;;;;;;17.15;3.40;;;;;;;;;;5090306;28;20374;-70
2021/04/02 09:26:43;;;;;;;15.90;4.05;;;;;;;;;;5089110;28;20373;-70
2021/04/02 09:29:10;;;;;;;13.83;3.50;;;;;;;;;;5090480;28;20366;-70
2021/04/02 09:31:37;;;;;;;13.48;3.38;;;;;;;;;;5090635;28;20718;-68
2021/04/02 09:34:05;;;;;;;15.82;3.33;;;;;;;;;;5072582;28;20842;-71
2021/04/02 09:36:32;;;;;;;13.02;2.83;;;;;;;;;;5090227;28;20389;-70
2021/04/02 09:39:04;;;;;;;10.80;2.88;;;;;;;;;;5089860;28;20378;-71
2021/04/02 09:41:29;;;;;;;15.02;3.58;;;;;;;;;;5069918;28;20391;-71
2021/04/02 09:43:55;;;;;;;13.75;3.03;;;;;;;;;;5089194;28;20414;-71
2021/04/02 09:46:29;;;;;;;16.15;3.13;;;;;;;;;;5090263;28;20419;-71
2021/04/02 09:49:06;;;;;;;15.85;3.30;;;;;;;;;;5072398;28;20374;-71
2021/04/02 09:51:32;;;;;;;15.80;3.70;;;;;;;;;;5089683;28;20389;-71
2021/04/02 09:53:58;;;;;;;13.88;3.22;;;;;;;;;;5071749;28;20386;-70
2021/04/02 09:56:24;;;;;;;11.32;2.92;;;;;;;;;;5089579;28;20370;-71
2021/04/02 09:58:50;;;;;;;10.48;3.20;;;;;;;;;;5076178;28;20380;-71
2021/04/02 10:01:16;;;;;;;11.97;3.20;;;;;;;;;;5089800;28;20366;-71
2021/04/02 10:03:42;;;;;;;11.88;3.00;;;;;;;;;;5089647;28;20517;-72
2021/04/02 10:06:08;;;;;;;10.05;3.00;;;;;;;;;;5088788;28;20381;-71
2021/04/02 10:08:34;;;;;;;13.88;3.15;;;;;;;;;;5089793;28;20371;-71
2021/04/02 10:11:00;;;;;;;15.63;3.55;;;;;;;;;;5088419;28;20731;-69
2021/04/02 10:13:26;;;;;;;16.58;3.85;;;;;;;;;;5089732;28;20808;-69
2021/04/02 10:15:52;;;;;;;11.57;3.35;;;;;;;;;;5089443;28;20475;-69
2021/04/02 10:18:20;;;;;;;11.35;3.30;;;;;;;;;;5088426;28;20501;-71
2021/04/02 10:20:46;;;;;;;13.13;3.40;;;;;;;;;;5071630;28;20425;-69
2021/04/02 10:23:12;;;;;;;13.88;3.58;;;;;;;;;;5068896;28;20498;-69
2021/04/02 10:25:38;;;;;;;13.90;3.60;;;;;;;;;;5068956;28;20467;-69
2021/04/02 10:28:04;;;;;;;14.83;3.80;;;;;;;;;;5086183;28;20964;-70
2021/04/02 10:30:30;;;;;;;11.48;3.30;;;;;;;;;;5088902;28;20419;-69
2021/04/02 10:32:56;;;;;;;14.98;3.60;;;;;;;;;;5087792;28;20390;-70
2021/04/02 10:35:22;;;;;;;16.20;3.43;;;;;;;;;;5088915;28;20695;-69
2021/04/02 10:37:48;;;;;;;19.45;4.55;;;;;;;;;;5085515;28;20931;-69
2021/04/02 10:40:14;;;;;;;11.80;3.30;;;;;;;;;;5088698;28;20370;-69
2021/04/02 10:42:40;;;;;;;14.02;3.35;;;;;;;;;;5088359;28;20398;-70
2021/04/02 10:45:07;;;;;;;13.27;3.40;;;;;;;;;;5088673;28;20982;-69
2021/04/02 10:47:33;;;;;;;13.65;3.42;;;;;;;;;;5088597;28;20442;-70
2021/04/02 10:49:59;;;;;;;13.43;3.08;;;;;;;;;;5088361;28;20497;-69
2021/04/02 10:52:24;;;;;;;15.65;3.58;;;;;;;;;;5088842;28;20374;-69
2021/04/02 10:54:50;;;;;;;13.40;3.30;;;;;;;;;;5068899;28;20408;-69
2021/04/02 10:57:16;;;;;;;16.10;3.33;;;;;;;;;;5083598;28;20432;-70
2021/04/02 10:59:43;;;;;;;14.73;3.70;;;;;;;;;;5086093;28;20390;-69
2021/04/02 11:02:09;;;;;;;13.80;3.38;;;;;;;;;;5078681;28;20391;-70
2021/04/02 11:04:35;;;;;;;12.65;3.28;;;;;;;;;;5087134;28;20992;-69
2021/04/02 11:07:01;;;;;;;13.80;3.13;;;;;;;;;;5087885;28;20493;-70
2021/04/02 11:09:27;;;;;;;15.75;3.38;;;;;;;;;;5082036;28;20401;-69
2021/04/02 11:11:55;;;;;;;11.48;3.38;;;;;;;;;;5078596;28;20398;-69
2021/04/02 11:14:21;;;;;;;13.65;3.00;;;;;;;;;;5087735;28;20381;-69
2021/04/02 11:16:46;;;;;;;12.17;3.00;;;;;;;;;;5086835;28;20386;-68
2021/04/02 11:19:12;;;;;;;13.55;3.10;;;;;;;;;;5081255;28;20438;-69
2021/04/02 11:21:38;;;;;;;12.93;3.22;;;;;;;;;;5093370;28;20473;-69
2021/04/02 11:24:04;;;;;;;12.13;3.30;;;;;;;;;;5076889;28;20483;-69
2021/04/02 11:26:30;;;;;;;13.85;3.50;;;;;;;;;;5071556;28;20398;-69
2021/04/02 11:28:56;;;;;;;15.25;3.47;;;;;;;;;;5086536;28;20404;-69
2021/04/02 11:31:22;;;;;;;14.05;3.20;;;;;;;;;;5074497;28;20399;-70
2021/04/02 11:33:49;;;;;;;14.23;3.42;;;;;;;;;;5085429;28;20436;-70
2021/04/02 11:36:15;;;;;;;15.07;3.72;;;;;;;;;;5072828;28;20395;-69
2021/04/02 11:38:41;;;;;;;17.23;4.07;;;;;;;;;;5068230;28;20411;-69
2021/04/02 11:41:07;;;;;;;17.13;3.67;;;;;;;;;;5072206;28;20440;-69
2021/04/02 11:43:33;;;;;;;17.95;3.95;;;;;;;;;;5085896;28;20927;-69
2021/04/02 11:45:59;;;;;;;17.23;4.20;;;;;;;;;;5076862;28;20394;-70
2021/04/02 11:48:25;;;;;;;13.70;3.67;;;;;;;;;;5068032;28;20468;-70
2021/04/02 11:50:51;;;;;;;11.73;2.80;;;;;;;;;;5084437;28;21142;-69
2021/04/02 11:53:17;;;;;;;13.02;3.20;;;;;;;;;;5099457;28;20370;-69
2021/04/02 11:55:43;;;;;;;11.18;3.10;;;;;;;;;;5084524;28;20382;-69
2021/04/02 11:58:09;;;;;;;13.45;3.45;;;;;;;;;;5085812;28;20408;-69
2021/04/02 12:00:35;;;;;;;14.33;3.00;;;;;;;;;;5083400;28;20394;-69
2021/04/02 12:03:01;;;;;;;14.70;3.38;;;;;;;;;;5086230;28;20417;-70
2021/04/02 12:05:27;;;;;;;15.20;3.35;;;;;;;;;;5075819;28;20892;-70
2021/04/02 12:07:53;;;;;;;12.82;2.92;;;;;;;;;;5082955;28;20398;-69
2021/04/02 12:10:20;;;;;;;13.48;3.15;;;;;;;;;;5078821;28;20832;-70
2021/04/02 12:12:46;;;;;;;14.15;2.95;;;;;;;;;;5065584;28;20513;-70
2021/04/02 12:15:12;;;;;;;12.48;2.95;;;;;;;;;;5076020;28;20390;-70
2021/04/02 12:17:38;;;;;;;12.15;3.08;;;;;;;;;;5070726;28;20376;-70
2021/04/02 12:20:06;;;;;;;13.45;2.75;;;;;;;;;;5071955;28;20398;-70
2021/04/02 12:22:32;;;;;;;13.35;3.03;;;;;;;;;;5062539;28;20786;-69
2021/04/02 12:24:58;;;;;;;13.15;3.20;;;;;;;;;;5080312;28;20382;-70
2021/04/02 12:27:24;;;;;;;14.57;3.45;;;;;;;;;;5084555;28;20408;-70
2021/04/02 12:29:49;;;;;;;10.98;3.28;;;;;;;;;;5085836;28;20440;-70
2021/04/02 12:32:15;;;;;;;11.35;3.22;;;;;;;;;;5080326;28;20406;-70
2021/04/02 12:34:42;;;;;;;8.52;2.53;;;;;;;;;;5088709;28;20442;-69
2021/04/02 12:37:08;;;;;;;11.55;3.10;;;;;;;;;;5083282;28;20394;-70
2021/04/02 12:39:34;;;;;;;14.90;3.40;;;;;;;;;;5101058;28;20411;-70
2021/04/02 12:42:00;;;;;;;16.23;3.22;;;;;;;;;;5084158;28;20389;-70
2021/04/02 12:44:28;;;;;;;12.02;3.20;;;;;;;;;;5086061;28;20386;-70
2021/04/02 12:46:55;;;;;;;11.48;2.88;;;;;;;;;;5086858;28;20435;-70
2021/04/02 12:49:23;;;;;;;14.02;3.00;;;;;;;;;;5072661;28;20390;-69
2021/04/02 12:51:51;;;;;;;11.02;3.30;;;;;;;;;;5084804;28;20727;-70
2021/04/02 12:54:33;;;;;;;12.75;3.20;;;;;;;;;;5095600;28;20422;-69
2021/04/02 12:56:59;;;;;;;10.73;2.63;;;;;;;;;;5083255;28;20390;-70
2021/04/02 12:59:27;;;;;;;11.93;3.03;;;;;;;;;;5086042;28;21162;-70
2021/04/02 13:01:54;;;;;;;14.02;2.90;;;;;;;;;;5090059;28;20374;-71
2021/04/02 13:04:21;;;;;;;13.18;2.83;;;;;;;;;;5077539;28;20440;-69
2021/04/02 13:06:54;;;;;;;12.03;2.63;;;;;;;;;;5069181;28;20417;-71
2021/04/02 13:09:20;;;;;;;9.47;2.77;;;;;;;;;;5064851;28;20916;-70
2021/04/02 13:11:46;;;;;;;11.90;2.85;;;;;;;;;;5081208;28;20451;-70
2021/04/02 13:14:14;;;;;;;8.98;2.75;;;;;;;;;;5086598;28;20834;-70
2021/04/02 13:16:40;;;;;;;11.70;3.13;;;;;;;;;;5086127;28;20911;-69
2021/04/02 13:19:11;;;;;;;13.43;3.00;;;;;;;;;;5084866;28;20394;-70
2021/04/02 13:21:37;;;;;;;13.38;3.25;;;;;;;;;;5095203;28;20417;-70
2021/04/02 13:24:04;;;;;;;12.18;3.00;;;;;;;;;;5088081;28;20433;-69
2021/04/02 13:26:30;;;;;;;11.32;2.90;;;;;;;;;;5090198;28;20386;-70
2021/04/02 13:28:56;;;;;;;9.77;2.53;;;;;;;;;;5089671;28;20412;-70
2021/04/02 13:31:22;;;;;;;11.48;2.50;;;;;;;;;;5087988;28;21033;-69
2021/04/02 13:33:48;;;;;;;10.18;3.00;;;;;;;;;;5088475;28;20402;-70
2021/04/02 13:36:19;;;;;;;11.87;2.80;;;;;;;;;;5078248;28;20481;-70
2021/04/02 13:38:45;;;;;;;12.07;2.83;;;;;;;;;;5086644;28;20692;-70
2021/04/02 13:41:11;;;;;;;12.80;2.40;;;;;;;;;;5084853;28;20394;-70
2021/04/02 13:43:37;;;;;;;8.87;2.30;;;;;;;;;;5065808;28;20436;-70
2021/04/02 13:46:03;;;;;;;8.45;2.53;;;;;;;;;;5085732;28;20426;-70
2021/04/02 13:48:29;;;;;;;8.85;2.60;;;;;;;;;;5064018;28;20385;-70
2021/04/02 13:50:55;;;;;;;8.45;2.30;;;;;;;;;;5086149;28;20398;-70
2021/04/02 13:53:21;;;;;;;11.47;3.10;;;;;;;;;;5085437;28;20393;-70
2021/04/02 13:55:47;;;;;;;11.45;2.80;;;;;;;;;;5086522;28;20394;-70
2021/04/02 13:58:13;;;;;;;10.40;2.67;;;;;;;;;;5086892;28;20863;-70
2021/04/02 14:00:39;;;;;;;10.00;2.50;;;;;;;;;;5079185;28;20390;-71
2021/04/02 14:03:06;;;;;;;12.88;2.88;;;;;;;;;;5083160;28;20423;-70
2021/04/02 14:05:32;;;;;;;14.10;2.67;;;;;;;;;;5088527;28;20385;-70
2021/04/02 14:07:58;;;;;;;9.30;2.67;;;;;;;;;;5087351;28;20401;-70
2021/04/02 14:10:25;;;;;;;9.40;2.70;;;;;;;;;;5089127;28;21047;-70
2021/04/02 14:12:51;;;;;;;12.20;3.00;;;;;;;;;;5088619;28;20456;-70
2021/04/02 14:15:22;;;;;;;11.90;3.00;;;;;;;;;;5089043;28;20398;-70
2021/04/02 14:17:48;;;;;;;12.83;2.83;;;;;;;;;;5079654;28;20483;-70
2021/04/02 14:20:15;;;;;;;13.52;3.00;;;;;;;;;;5088421;28;20394;-70
2021/04/02 14:22:41;;;;;;;11.57;2.60;;;;;;;;;;5081949;28;20494;-70
2021/04/02 14:25:09;;;;;;;13.38;2.90;;;;;;;;;;5086478;28;20430;-70
2021/04/02 14:27:35;;;;;;;13.40;2.88;;;;;;;;;;5085432;28;20390;-71
2021/04/02 14:30:03;;;;;;;12.43;2.83;;;;;;;;;;5083368;28;20855;-72
2021/04/02 14:32:29;;;;;;;9.68;2.83;;;;;;;;;;5077333;28;20436;-71